sensor_id;sensor_type;location;lat;lon;timestamp;P1;durP1;ratioP1;P2;durP2;ratioP2
14704;SDS011;7442;50.840;3.396;2023-09-30T00:02:25;1.57;;;1.47;;
14704;SDS011;7442;50.840;3.396;2023-09-30T00:05:12;2.02;;;1.62;;
14704;SDS011;7442;50.840;3.396;2023-09-30T00:07:59;1.98;;;1.60;;
14704;SDS011;7442;50.840;3.396;2023-09-30T00:10:45;6.10;;;1.70;;
14704;SDS011;7442;50.840;3.396;2023-09-30T00:13:32;2.85;;;1.85;;
14704;SDS011;7442;50.840;3.396;2023-09-30T00:16:18;3.92;;;1.90;;
14704;SDS011;7442;50.840;3.396;2023-09-30T00:19:04;2.72;;;1.85;;
14704;SDS011;7442;50.840;3.396;2023-09-30T00:21:51;2.35;;;1.57;;
14704;SDS011;7442;50.840;3.396;2023-09-30T00:24:37;3.08;;;1.30;;
14704;SDS011;7442;50.840;3.396;2023-09-30T00:27:24;3.85;;;1.70;;
14704;SDS011;7442;50.840;3.396;2023-09-30T00:30:10;3.67;;;1.77;;
14704;SDS011;7442;50.840;3.396;2023-09-30T00:32:56;2.62;;;1.70;;
14704;SDS011;7442;50.840;3.396;2023-09-30T00:35:44;4.37;;;2.02;;
14704;SDS011;7442;50.840;3.396;2023-09-30T00:38:30;2.90;;;1.90;;
14704;SDS011;7442;50.840;3.396;2023-09-30T00:41:16;3.35;;;1.95;;
14704;SDS011;7442;50.840;3.396;2023-09-30T00:44:02;5.47;;;2.17;;
14704;SDS011;7442;50.840;3.396;2023-09-30T00:46:48;2.62;;;1.60;;
14704;SDS011;7442;50.840;3.396;2023-09-30T00:49:35;2.67;;;1.87;;
14704;SDS011;7442;50.840;3.396;2023-09-30T00:52:22;2.65;;;1.87;;
14704;SDS011;7442;50.840;3.396;2023-09-30T00:55:08;3.37;;;1.90;;
14704;SDS011;7442;50.840;3.396;2023-09-30T00:57:55;3.30;;;1.65;;
14704;SDS011;7442;50.840;3.396;2023-09-30T01:00:42;3.02;;;1.87;;
14704;SDS011;7442;50.840;3.396;2023-09-30T01:03:29;4.20;;;1.90;;
14704;SDS011;7442;50.840;3.396;2023-09-30T01:06:15;2.90;;;1.85;;
14704;SDS011;7442;50.840;3.396;2023-09-30T01:09:01;8.85;;;1.75;;
14704;SDS011;7442;50.840;3.396;2023-09-30T01:11:47;2.90;;;1.80;;
14704;SDS011;7442;50.840;3.396;2023-09-30T01:14:34;3.50;;;1.87;;
14704;SDS011;7442;50.840;3.396;2023-09-30T01:17:25;2.10;;;1.60;;
14704;SDS011;7442;50.840;3.396;2023-09-30T01:20:13;4.15;;;1.82;;
14704;SDS011;7442;50.840;3.396;2023-09-30T01:23:04;2.20;;;1.60;;
14704;SDS011;7442;50.840;3.396;2023-09-30T01:25:51;5.83;;;2.05;;
14704;SDS011;7442;50.840;3.396;2023-09-30T01:28:38;3.87;;;2.20;;
14704;SDS011;7442;50.840;3.396;2023-09-30T01:31:25;2.83;;;1.77;;
14704;SDS011;7442;50.840;3.396;2023-09-30T01:34:12;2.55;;;1.70;;
14704;SDS011;7442;50.840;3.396;2023-09-30T01:37:01;1.87;;;1.60;;
14704;SDS011;7442;50.840;3.396;2023-09-30T01:39:48;2.37;;;1.60;;
14704;SDS011;7442;50.840;3.396;2023-09-30T01:42:34;3.00;;;1.77;;
14704;SDS011;7442;50.840;3.396;2023-09-30T01:45:20;3.55;;;1.50;;
14704;SDS011;7442;50.840;3.396;2023-09-30T01:48:07;2.45;;;1.60;;
14704;SDS011;7442;50.840;3.396;2023-09-30T01:50:54;3.00;;;1.80;;
14704;SDS011;7442;50.840;3.396;2023-09-30T01:53:42;1.95;;;1.50;;
14704;SDS011;7442;50.840;3.396;2023-09-30T01:56:30;3.40;;;1.60;;
14704;SDS011;7442;50.840;3.396;2023-09-30T01:59:16;2.02;;;1.75;;
14704;SDS011;7442;50.840;3.396;2023-09-30T02:02:02;2.15;;;1.57;;
14704;SDS011;7442;50.840;3.396;2023-09-30T02:04:49;2.65;;;1.55;;
14704;SDS011;7442;50.840;3.396;2023-09-30T02:07:35;2.08;;;1.62;;
14704;SDS011;7442;50.840;3.396;2023-09-30T02:10:22;3.05;;;1.90;;
14704;SDS011;7442;50.840;3.396;2023-09-30T02:13:08;2.00;;;1.65;;
14704;SDS011;7442;50.840;3.396;2023-09-30T02:15:56;2.65;;;1.70;;
14704;SDS011;7442;50.840;3.396;2023-09-30T02:18:43;2.08;;;1.57;;
14704;SDS011;7442;50.840;3.396;2023-09-30T02:21:33;2.75;;;1.60;;
14704;SDS011;7442;50.840;3.396;2023-09-30T02:24:20;2.60;;;1.70;;
14704;SDS011;7442;50.840;3.396;2023-09-30T02:27:07;2.10;;;1.60;;
14704;SDS011;7442;50.840;3.396;2023-09-30T02:29:54;1.60;;;1.50;;
14704;SDS011;7442;50.840;3.396;2023-09-30T02:32:40;3.60;;;1.80;;
14704;SDS011;7442;50.840;3.396;2023-09-30T02:35:27;3.17;;;2.10;;
14704;SDS011;7442;50.840;3.396;2023-09-30T02:38:13;2.00;;;1.70;;
14704;SDS011;7442;50.840;3.396;2023-09-30T02:41:01;2.05;;;1.57;;
14704;SDS011;7442;50.840;3.396;2023-09-30T02:43:47;2.67;;;1.95;;
14704;SDS011;7442;50.840;3.396;2023-09-30T02:46:34;2.75;;;1.80;;
14704;SDS011;7442;50.840;3.396;2023-09-30T02:49:21;2.62;;;2.05;;
14704;SDS011;7442;50.840;3.396;2023-09-30T02:52:07;3.45;;;1.80;;
14704;SDS011;7442;50.840;3.396;2023-09-30T02:54:54;3.52;;;1.90;;
14704;SDS011;7442;50.840;3.396;2023-09-30T02:57:41;2.37;;;1.90;;
14704;SDS011;7442;50.840;3.396;2023-09-30T03:00:27;2.17;;;1.60;;
14704;SDS011;7442;50.840;3.396;2023-09-30T03:03:15;3.52;;;2.05;;
14704;SDS011;7442;50.840;3.396;2023-09-30T03:06:01;2.95;;;1.90;;
14704;SDS011;7442;50.840;3.396;2023-09-30T03:08:47;1.80;;;1.60;;
14704;SDS011;7442;50.840;3.396;2023-09-30T03:11:33;2.50;;;1.72;;
14704;SDS011;7442;50.840;3.396;2023-09-30T03:14:20;1.70;;;1.60;;
14704;SDS011;7442;50.840;3.396;2023-09-30T03:17:07;2.90;;;1.60;;
14704;SDS011;7442;50.840;3.396;2023-09-30T03:19:55;2.83;;;1.90;;
14704;SDS011;7442;50.840;3.396;2023-09-30T03:22:41;3.05;;;1.90;;
14704;SDS011;7442;50.840;3.396;2023-09-30T03:25:28;2.60;;;1.72;;
14704;SDS011;7442;50.840;3.396;2023-09-30T03:28:15;3.35;;;2.27;;
14704;SDS011;7442;50.840;3.396;2023-09-30T03:31:01;2.72;;;1.70;;
14704;SDS011;7442;50.840;3.396;2023-09-30T03:33:49;2.40;;;1.80;;
14704;SDS011;7442;50.840;3.396;2023-09-30T03:36:37;4.58;;;2.12;;
14704;SDS011;7442;50.840;3.396;2023-09-30T03:39:25;2.98;;;1.80;;
14704;SDS011;7442;50.840;3.396;2023-09-30T03:42:11;4.53;;;1.85;;
14704;SDS011;7442;50.840;3.396;2023-09-30T03:44:58;2.35;;;1.70;;
14704;SDS011;7442;50.840;3.396;2023-09-30T03:47:44;2.12;;;1.50;;
14704;SDS011;7442;50.840;3.396;2023-09-30T03:50:32;2.50;;;1.75;;
14704;SDS011;7442;50.840;3.396;2023-09-30T03:53:19;2.98;;;1.80;;
14704;SDS011;7442;50.840;3.396;2023-09-30T03:56:08;1.90;;;1.70;;
14704;SDS011;7442;50.840;3.396;2023-09-30T03:58:55;1.70;;;1.60;;
14704;SDS011;7442;50.840;3.396;2023-09-30T04:01:41;2.87;;;1.82;;
14704;SDS011;7442;50.840;3.396;2023-09-30T04:04:28;5.28;;;1.85;;
14704;SDS011;7442;50.840;3.396;2023-09-30T04:07:15;3.45;;;2.00;;
14704;SDS011;7442;50.840;3.396;2023-09-30T04:10:01;3.35;;;1.92;;
14704;SDS011;7442;50.840;3.396;2023-09-30T04:12:49;2.72;;;2.00;;
14704;SDS011;7442;50.840;3.396;2023-09-30T04:15:37;2.75;;;1.50;;
14704;SDS011;7442;50.840;3.396;2023-09-30T04:18:23;2.12;;;1.87;;
14704;SDS011;7442;50.840;3.396;2023-09-30T04:21:11;2.35;;;1.87;;
14704;SDS011;7442;50.840;3.396;2023-09-30T04:23:58;2.65;;;1.95;;
14704;SDS011;7442;50.840;3.396;2023-09-30T04:26:44;5.42;;;1.65;;
14704;SDS011;7442;50.840;3.396;2023-09-30T04:29:31;2.35;;;1.98;;
14704;SDS011;7442;50.840;3.396;2023-09-30T04:32:17;3.77;;;1.80;;
14704;SDS011;7442;50.840;3.396;2023-09-30T04:35:04;3.77;;;2.08;;
14704;SDS011;7442;50.840;3.396;2023-09-30T04:37:52;2.98;;;1.75;;
14704;SDS011;7442;50.840;3.396;2023-09-30T04:40:39;3.15;;;1.90;;
14704;SDS011;7442;50.840;3.396;2023-09-30T04:43:25;2.30;;;1.90;;
14704;SDS011;7442;50.840;3.396;2023-09-30T04:46:13;2.98;;;1.87;;
14704;SDS011;7442;50.840;3.396;2023-09-30T04:48:59;3.30;;;1.87;;
14704;SDS011;7442;50.840;3.396;2023-09-30T04:51:47;2.47;;;1.85;;
14704;SDS011;7442;50.840;3.396;2023-09-30T04:54:34;2.60;;;2.08;;
14704;SDS011;7442;50.840;3.396;2023-09-30T04:57:20;2.52;;;1.95;;
14704;SDS011;7442;50.840;3.396;2023-09-30T05:00:07;2.58;;;1.95;;
14704;SDS011;7442;50.840;3.396;2023-09-30T05:02:55;2.72;;;1.90;;
14704;SDS011;7442;50.840;3.396;2023-09-30T05:05:43;2.22;;;1.80;;
14704;SDS011;7442;50.840;3.396;2023-09-30T05:08:30;3.37;;;1.82;;
14704;SDS011;7442;50.840;3.396;2023-09-30T05:11:16;2.30;;;1.72;;
14704;SDS011;7442;50.840;3.396;2023-09-30T05:14:03;2.87;;;1.80;;
14704;SDS011;7442;50.840;3.396;2023-09-30T05:16:49;3.10;;;2.15;;
14704;SDS011;7442;50.840;3.396;2023-09-30T05:19:35;3.08;;;1.87;;
14704;SDS011;7442;50.840;3.396;2023-09-30T05:22:22;2.98;;;1.67;;
14704;SDS011;7442;50.840;3.396;2023-09-30T05:25:09;2.90;;;2.00;;
14704;SDS011;7442;50.840;3.396;2023-09-30T05:27:55;2.02;;;1.60;;
14704;SDS011;7442;50.840;3.396;2023-09-30T05:30:41;2.20;;;1.72;;
14704;SDS011;7442;50.840;3.396;2023-09-30T05:33:28;3.75;;;2.20;;
14704;SDS011;7442;50.840;3.396;2023-09-30T05:36:15;2.25;;;1.80;;
14704;SDS011;7442;50.840;3.396;2023-09-30T05:39:01;2.77;;;1.85;;
14704;SDS011;7442;50.840;3.396;2023-09-30T05:41:49;4.35;;;1.90;;
14704;SDS011;7442;50.840;3.396;2023-09-30T05:44:35;2.55;;;1.80;;
14704;SDS011;7442;50.840;3.396;2023-09-30T05:47:21;3.35;;;2.20;;
14704;SDS011;7442;50.840;3.396;2023-09-30T05:50:07;1.98;;;1.30;;
14704;SDS011;7442;50.840;3.396;2023-09-30T05:52:55;3.27;;;1.90;;
14704;SDS011;7442;50.840;3.396;2023-09-30T05:55:42;3.47;;;1.92;;
14704;SDS011;7442;50.840;3.396;2023-09-30T05:58:29;2.47;;;2.00;;
14704;SDS011;7442;50.840;3.396;2023-09-30T06:01:16;3.00;;;2.10;;
14704;SDS011;7442;50.840;3.396;2023-09-30T06:04:03;2.47;;;2.00;;
14704;SDS011;7442;50.840;3.396;2023-09-30T06:06:50;2.42;;;1.98;;
14704;SDS011;7442;50.840;3.396;2023-09-30T06:09:36;2.50;;;1.87;;
14704;SDS011;7442;50.840;3.396;2023-09-30T06:12:23;2.72;;;2.02;;
14704;SDS011;7442;50.840;3.396;2023-09-30T06:15:09;2.20;;;1.80;;
14704;SDS011;7442;50.840;3.396;2023-09-30T06:17:57;3.72;;;2.00;;
14704;SDS011;7442;50.840;3.396;2023-09-30T06:20:44;2.90;;;2.00;;
14704;SDS011;7442;50.840;3.396;2023-09-30T06:23:31;2.90;;;2.17;;
14704;SDS011;7442;50.840;3.396;2023-09-30T06:26:17;2.25;;;1.90;;
14704;SDS011;7442;50.840;3.396;2023-09-30T06:29:05;2.33;;;1.80;;
14704;SDS011;7442;50.840;3.396;2023-09-30T06:31:52;4.95;;;1.87;;
14704;SDS011;7442;50.840;3.396;2023-09-30T06:34:38;3.35;;;2.00;;
14704;SDS011;7442;50.840;3.396;2023-09-30T06:37:25;2.45;;;2.00;;
14704;SDS011;7442;50.840;3.396;2023-09-30T06:40:13;2.83;;;1.98;;
14704;SDS011;7442;50.840;3.396;2023-09-30T06:42:59;2.08;;;1.67;;
14704;SDS011;7442;50.840;3.396;2023-09-30T06:45:45;2.75;;;2.02;;
14704;SDS011;7442;50.840;3.396;2023-09-30T06:48:33;2.20;;;1.80;;
14704;SDS011;7442;50.840;3.396;2023-09-30T06:51:19;2.42;;;1.77;;
14704;SDS011;7442;50.840;3.396;2023-09-30T06:54:06;2.50;;;2.05;;
14704;SDS011;7442;50.840;3.396;2023-09-30T06:56:52;2.55;;;2.02;;
14704;SDS011;7442;50.840;3.396;2023-09-30T06:59:38;3.35;;;2.35;;
14704;SDS011;7442;50.840;3.396;2023-09-30T07:02:25;3.80;;;2.40;;
14704;SDS011;7442;50.840;3.396;2023-09-30T07:05:12;2.77;;;2.20;;
14704;SDS011;7442;50.840;3.396;2023-09-30T07:07:59;3.87;;;2.35;;
14704;SDS011;7442;50.840;3.396;2023-09-30T07:10:45;4.37;;;2.47;;
14704;SDS011;7442;50.840;3.396;2023-09-30T07:13:33;3.50;;;2.22;;
14704;SDS011;7442;50.840;3.396;2023-09-30T07:16:20;4.72;;;2.65;;
14704;SDS011;7442;50.840;3.396;2023-09-30T07:19:06;4.97;;;2.50;;
14704;SDS011;7442;50.840;3.396;2023-09-30T07:21:53;4.45;;;2.55;;
14704;SDS011;7442;50.840;3.396;2023-09-30T07:24:39;4.00;;;2.67;;
14704;SDS011;7442;50.840;3.396;2023-09-30T07:27:26;4.83;;;2.70;;
14704;SDS011;7442;50.840;3.396;2023-09-30T07:30:13;3.60;;;2.45;;
14704;SDS011;7442;50.840;3.396;2023-09-30T07:33:00;6.55;;;2.52;;
14704;SDS011;7442;50.840;3.396;2023-09-30T07:35:46;5.92;;;2.80;;
14704;SDS011;7442;50.840;3.396;2023-09-30T07:38:33;5.35;;;2.67;;
14704;SDS011;7442;50.840;3.396;2023-09-30T07:41:19;4.30;;;2.72;;
14704;SDS011;7442;50.840;3.396;2023-09-30T07:44:06;5.60;;;3.10;;
14704;SDS011;7442;50.840;3.396;2023-09-30T07:46:53;6.37;;;2.83;;
14704;SDS011;7442;50.840;3.396;2023-09-30T07:49:39;5.28;;;2.87;;
14704;SDS011;7442;50.840;3.396;2023-09-30T07:52:26;9.23;;;2.87;;
14704;SDS011;7442;50.840;3.396;2023-09-30T07:55:12;4.95;;;2.80;;
14704;SDS011;7442;50.840;3.396;2023-09-30T07:57:59;6.20;;;2.80;;
14704;SDS011;7442;50.840;3.396;2023-09-30T08:00:45;6.47;;;2.95;;
14704;SDS011;7442;50.840;3.396;2023-09-30T08:03:33;7.92;;;3.37;;
14704;SDS011;7442;50.840;3.396;2023-09-30T08:06:19;8.80;;;3.45;;
14704;SDS011;7442;50.840;3.396;2023-09-30T08:09:06;4.33;;;2.85;;
14704;SDS011;7442;50.840;3.396;2023-09-30T08:11:56;6.65;;;2.92;;
14704;SDS011;7442;50.840;3.396;2023-09-30T08:14:43;6.17;;;3.20;;
14704;SDS011;7442;50.840;3.396;2023-09-30T08:17:29;6.58;;;3.15;;
14704;SDS011;7442;50.840;3.396;2023-09-30T08:20:16;6.55;;;3.10;;
14704;SDS011;7442;50.840;3.396;2023-09-30T08:23:03;4.58;;;2.72;;
14704;SDS011;7442;50.840;3.396;2023-09-30T08:25:50;6.03;;;3.10;;
14704;SDS011;7442;50.840;3.396;2023-09-30T08:28:36;6.90;;;3.22;;
14704;SDS011;7442;50.840;3.396;2023-09-30T08:31:23;5.90;;;2.92;;
14704;SDS011;7442;50.840;3.396;2023-09-30T08:34:09;6.58;;;2.98;;
14704;SDS011;7442;50.840;3.396;2023-09-30T08:36:56;5.03;;;3.00;;
14704;SDS011;7442;50.840;3.396;2023-09-30T08:39:43;5.90;;;3.25;;
14704;SDS011;7442;50.840;3.396;2023-09-30T08:42:30;7.08;;;3.25;;
14704;SDS011;7442;50.840;3.396;2023-09-30T08:45:19;7.10;;;2.87;;
14704;SDS011;7442;50.840;3.396;2023-09-30T08:48:06;8.90;;;3.30;;
14704;SDS011;7442;50.840;3.396;2023-09-30T08:50:52;7.70;;;3.00;;
14704;SDS011;7442;50.840;3.396;2023-09-30T08:53:40;6.03;;;2.80;;
14704;SDS011;7442;50.840;3.396;2023-09-30T08:56:28;5.83;;;2.72;;
14704;SDS011;7442;50.840;3.396;2023-09-30T08:59:17;7.75;;;3.10;;
14704;SDS011;7442;50.840;3.396;2023-09-30T09:02:10;7.97;;;3.37;;
14704;SDS011;7442;50.840;3.396;2023-09-30T09:04:58;7.05;;;3.20;;
14704;SDS011;7442;50.840;3.396;2023-09-30T09:07:44;5.83;;;2.90;;
14704;SDS011;7442;50.840;3.396;2023-09-30T09:10:32;6.00;;;2.72;;
14704;SDS011;7442;50.840;3.396;2023-09-30T09:13:18;6.75;;;3.20;;
14704;SDS011;7442;50.840;3.396;2023-09-30T09:16:08;6.87;;;3.33;;
14704;SDS011;7442;50.840;3.396;2023-09-30T09:18:55;5.20;;;3.22;;
14704;SDS011;7442;50.840;3.396;2023-09-30T09:21:59;6.50;;;3.35;;
14704;SDS011;7442;50.840;3.396;2023-09-30T09:24:43;6.72;;;3.20;;
14704;SDS011;7442;50.840;3.396;2023-09-30T09:27:33;8.33;;;3.17;;
14704;SDS011;7442;50.840;3.396;2023-09-30T09:30:25;6.17;;;2.90;;
14704;SDS011;7442;50.840;3.396;2023-09-30T09:33:13;7.33;;;3.17;;
14704;SDS011;7442;50.840;3.396;2023-09-30T09:35:59;6.62;;;3.25;;
14704;SDS011;7442;50.840;3.396;2023-09-30T09:38:49;7.25;;;3.12;;
14704;SDS011;7442;50.840;3.396;2023-09-30T09:41:49;6.75;;;3.02;;
14704;SDS011;7442;50.840;3.396;2023-09-30T09:44:36;9.35;;;3.65;;
14704;SDS011;7442;50.840;3.396;2023-09-30T09:47:23;7.05;;;2.95;;
14704;SDS011;7442;50.840;3.396;2023-09-30T09:50:10;6.03;;;2.55;;
14704;SDS011;7442;50.840;3.396;2023-09-30T09:52:59;7.55;;;3.00;;
14704;SDS011;7442;50.840;3.396;2023-09-30T09:55:45;7.33;;;2.87;;
14704;SDS011;7442;50.840;3.396;2023-09-30T09:58:33;7.08;;;3.40;;
14704;SDS011;7442;50.840;3.396;2023-09-30T10:01:20;6.62;;;3.47;;
14704;SDS011;7442;50.840;3.396;2023-09-30T10:04:07;7.08;;;3.08;;
14704;SDS011;7442;50.840;3.396;2023-09-30T10:06:55;7.28;;;3.30;;
14704;SDS011;7442;50.840;3.396;2023-09-30T10:09:44;9.38;;;3.12;;
14704;SDS011;7442;50.840;3.396;2023-09-30T10:12:37;7.37;;;2.72;;
14704;SDS011;7442;50.840;3.396;2023-09-30T10:18:15;7.35;;;3.12;;
14704;SDS011;7442;50.840;3.396;2023-09-30T10:21:07;6.17;;;2.85;;
14704;SDS011;7442;50.840;3.396;2023-09-30T10:24:19;5.22;;;2.60;;
14704;SDS011;7442;50.840;3.396;2023-09-30T10:26:43;7.33;;;2.90;;
14704;SDS011;7442;50.840;3.396;2023-09-30T10:29:41;8.30;;;3.65;;
14704;SDS011;7442;50.840;3.396;2023-09-30T10:35:44;9.10;;;3.33;;
14704;SDS011;7442;50.840;3.396;2023-09-30T10:44:33;8.48;;;2.92;;
14704;SDS011;7442;50.840;3.396;2023-09-30T10:53:31;9.18;;;3.60;;
14704;SDS011;7442;50.840;3.396;2023-09-30T10:56:18;9.50;;;3.00;;
14704;SDS011;7442;50.840;3.396;2023-09-30T10:59:05;8.60;;;3.40;;
14704;SDS011;7442;50.840;3.396;2023-09-30T11:01:51;10.65;;;3.65;;
14704;SDS011;7442;50.840;3.396;2023-09-30T11:04:47;9.30;;;3.83;;
14704;SDS011;7442;50.840;3.396;2023-09-30T11:07:33;12.88;;;4.08;;
14704;SDS011;7442;50.840;3.396;2023-09-30T11:10:22;11.50;;;3.98;;
14704;SDS011;7442;50.840;3.396;2023-09-30T11:13:08;16.25;;;4.12;;
14704;SDS011;7442;50.840;3.396;2023-09-30T11:16:05;11.95;;;3.90;;
14704;SDS011;7442;50.840;3.396;2023-09-30T11:18:53;10.15;;;3.55;;
14704;SDS011;7442;50.840;3.396;2023-09-30T11:21:40;8.40;;;3.55;;
14704;SDS011;7442;50.840;3.396;2023-09-30T11:24:30;11.33;;;4.15;;
14704;SDS011;7442;50.840;3.396;2023-09-30T11:27:24;15.70;;;3.95;;
14704;SDS011;7442;50.840;3.396;2023-09-30T11:30:12;9.58;;;3.70;;
14704;SDS011;7442;50.840;3.396;2023-09-30T11:32:59;11.65;;;3.90;;
14704;SDS011;7442;50.840;3.396;2023-09-30T11:36:04;12.18;;;3.95;;
14704;SDS011;7442;50.840;3.396;2023-09-30T11:38:46;11.45;;;3.80;;
14704;SDS011;7442;50.840;3.396;2023-09-30T11:41:37;16.73;;;4.37;;
14704;SDS011;7442;50.840;3.396;2023-09-30T11:44:26;13.38;;;3.92;;
14704;SDS011;7442;50.840;3.396;2023-09-30T11:47:13;8.48;;;3.58;;
14704;SDS011;7442;50.840;3.396;2023-09-30T11:50:00;13.95;;;4.87;;
14704;SDS011;7442;50.840;3.396;2023-09-30T11:52:48;9.33;;;3.80;;
14704;SDS011;7442;50.840;3.396;2023-09-30T11:55:34;9.83;;;4.17;;
14704;SDS011;7442;50.840;3.396;2023-09-30T11:58:21;12.43;;;4.12;;
14704;SDS011;7442;50.840;3.396;2023-09-30T12:01:08;10.58;;;3.65;;
14704;SDS011;7442;50.840;3.396;2023-09-30T12:03:55;11.08;;;3.60;;
14704;SDS011;7442;50.840;3.396;2023-09-30T12:06:42;12.55;;;4.03;;
14704;SDS011;7442;50.840;3.396;2023-09-30T12:09:28;8.25;;;3.72;;
14704;SDS011;7442;50.840;3.396;2023-09-30T12:12:15;11.10;;;3.80;;
14704;SDS011;7442;50.840;3.396;2023-09-30T12:15:03;14.75;;;4.45;;
14704;SDS011;7442;50.840;3.396;2023-09-30T12:17:49;14.43;;;3.90;;
14704;SDS011;7442;50.840;3.396;2023-09-30T12:20:36;11.18;;;3.30;;
14704;SDS011;7442;50.840;3.396;2023-09-30T12:23:22;10.60;;;3.98;;
14704;SDS011;7442;50.840;3.396;2023-09-30T12:26:09;11.03;;;3.85;;
14704;SDS011;7442;50.840;3.396;2023-09-30T12:28:56;11.68;;;3.47;;
14704;SDS011;7442;50.840;3.396;2023-09-30T12:31:43;10.68;;;3.60;;
14704;SDS011;7442;50.840;3.396;2023-09-30T12:34:30;14.40;;;3.77;;
14704;SDS011;7442;50.840;3.396;2023-09-30T12:37:17;11.85;;;3.95;;
14704;SDS011;7442;50.840;3.396;2023-09-30T12:40:05;13.83;;;4.37;;
14704;SDS011;7442;50.840;3.396;2023-09-30T12:42:52;11.10;;;3.40;;
14704;SDS011;7442;50.840;3.396;2023-09-30T12:45:38;11.60;;;3.95;;
14704;SDS011;7442;50.840;3.396;2023-09-30T12:48:25;12.95;;;3.90;;
14704;SDS011;7442;50.840;3.396;2023-09-30T12:51:13;12.85;;;4.35;;
14704;SDS011;7442;50.840;3.396;2023-09-30T12:54:00;12.75;;;4.28;;
14704;SDS011;7442;50.840;3.396;2023-09-30T12:56:48;15.68;;;5.12;;
14704;SDS011;7442;50.840;3.396;2023-09-30T12:59:34;11.00;;;3.90;;
14704;SDS011;7442;50.840;3.396;2023-09-30T13:02:21;11.97;;;4.28;;
14704;SDS011;7442;50.840;3.396;2023-09-30T13:05:08;10.85;;;4.00;;
14704;SDS011;7442;50.840;3.396;2023-09-30T13:07:55;13.25;;;4.30;;
14704;SDS011;7442;50.840;3.396;2023-09-30T13:10:42;10.40;;;3.80;;
14704;SDS011;7442;50.840;3.396;2023-09-30T13:13:30;9.90;;;3.90;;
14704;SDS011;7442;50.840;3.396;2023-09-30T13:16:17;10.85;;;3.52;;
14704;SDS011;7442;50.840;3.396;2023-09-30T13:19:05;10.23;;;3.67;;
14704;SDS011;7442;50.840;3.396;2023-09-30T13:21:52;10.18;;;4.03;;
14704;SDS011;7442;50.840;3.396;2023-09-30T13:24:39;9.15;;;3.30;;
14704;SDS011;7442;50.840;3.396;2023-09-30T13:27:26;13.08;;;3.92;;
14704;SDS011;7442;50.840;3.396;2023-09-30T13:30:13;10.85;;;4.17;;
14704;SDS011;7442;50.840;3.396;2023-09-30T13:32:59;31.82;;;6.22;;
14704;SDS011;7442;50.840;3.396;2023-09-30T13:35:46;24.70;;;4.72;;
14704;SDS011;7442;50.840;3.396;2023-09-30T13:38:32;14.03;;;3.67;;
14704;SDS011;7442;50.840;3.396;2023-09-30T13:41:19;11.00;;;3.52;;
14704;SDS011;7442;50.840;3.396;2023-09-30T13:44:05;14.95;;;3.87;;
14704;SDS011;7442;50.840;3.396;2023-09-30T13:46:51;10.63;;;4.15;;
14704;SDS011;7442;50.840;3.396;2023-09-30T13:49:37;14.25;;;3.62;;
14704;SDS011;7442;50.840;3.396;2023-09-30T13:52:24;9.85;;;3.45;;
14704;SDS011;7442;50.840;3.396;2023-09-30T13:55:10;9.30;;;3.58;;
14704;SDS011;7442;50.840;3.396;2023-09-30T13:57:58;10.85;;;3.52;;
14704;SDS011;7442;50.840;3.396;2023-09-30T14:00:49;9.73;;;3.50;;
14704;SDS011;7442;50.840;3.396;2023-09-30T14:03:32;13.53;;;4.10;;
14704;SDS011;7442;50.840;3.396;2023-09-30T14:06:19;11.22;;;3.50;;
14704;SDS011;7442;50.840;3.396;2023-09-30T14:09:05;9.45;;;3.77;;
14704;SDS011;7442;50.840;3.396;2023-09-30T14:11:53;8.85;;;4.03;;
14704;SDS011;7442;50.840;3.396;2023-09-30T14:14:40;10.68;;;3.67;;
14704;SDS011;7442;50.840;3.396;2023-09-30T14:17:27;11.30;;;3.40;;
14704;SDS011;7442;50.840;3.396;2023-09-30T14:20:13;12.07;;;3.72;;
14704;SDS011;7442;50.840;3.396;2023-09-30T14:23:00;13.25;;;3.40;;
14704;SDS011;7442;50.840;3.396;2023-09-30T14:25:46;9.68;;;3.45;;
14704;SDS011;7442;50.840;3.396;2023-09-30T14:28:33;8.73;;;3.70;;
14704;SDS011;7442;50.840;3.396;2023-09-30T14:31:19;7.58;;;3.02;;
14704;SDS011;7442;50.840;3.396;2023-09-30T14:34:05;6.42;;;2.75;;
14704;SDS011;7442;50.840;3.396;2023-09-30T14:36:52;9.75;;;3.15;;
14704;SDS011;7442;50.840;3.396;2023-09-30T14:39:38;7.28;;;2.75;;
14704;SDS011;7442;50.840;3.396;2023-09-30T14:42:26;6.78;;;3.05;;
14704;SDS011;7442;50.840;3.396;2023-09-30T14:45:12;5.85;;;2.60;;
14704;SDS011;7442;50.840;3.396;2023-09-30T14:47:58;7.37;;;3.45;;
14704;SDS011;7442;50.840;3.396;2023-09-30T14:50:48;9.33;;;3.12;;
14704;SDS011;7442;50.840;3.396;2023-09-30T14:53:35;8.13;;;2.80;;
14704;SDS011;7442;50.840;3.396;2023-09-30T14:56:21;7.35;;;2.80;;
14704;SDS011;7442;50.840;3.396;2023-09-30T14:59:07;7.30;;;2.90;;
14704;SDS011;7442;50.840;3.396;2023-09-30T15:01:54;7.03;;;2.70;;
14704;SDS011;7442;50.840;3.396;2023-09-30T15:04:40;7.17;;;2.67;;
14704;SDS011;7442;50.840;3.396;2023-09-30T15:07:26;6.50;;;2.83;;
14704;SDS011;7442;50.840;3.396;2023-09-30T15:10:13;4.85;;;2.45;;
14704;SDS011;7442;50.840;3.396;2023-09-30T15:12:59;6.15;;;2.80;;
14704;SDS011;7442;50.840;3.396;2023-09-30T15:15:45;4.72;;;2.50;;
14704;SDS011;7442;50.840;3.396;2023-09-30T15:18:31;5.40;;;2.70;;
14704;SDS011;7442;50.840;3.396;2023-09-30T15:21:17;8.20;;;2.90;;
14704;SDS011;7442;50.840;3.396;2023-09-30T15:24:04;5.33;;;2.75;;
14704;SDS011;7442;50.840;3.396;2023-09-30T15:26:51;6.33;;;2.90;;
14704;SDS011;7442;50.840;3.396;2023-09-30T15:29:37;5.83;;;2.55;;
14704;SDS011;7442;50.840;3.396;2023-09-30T15:32:24;6.92;;;3.20;;
14704;SDS011;7442;50.840;3.396;2023-09-30T15:35:10;4.95;;;2.55;;
14704;SDS011;7442;50.840;3.396;2023-09-30T15:37:57;6.72;;;3.02;;
14704;SDS011;7442;50.840;3.396;2023-09-30T15:40:53;6.25;;;2.83;;
14704;SDS011;7442;50.840;3.396;2023-09-30T15:43:45;8.73;;;2.98;;
14704;SDS011;7442;50.840;3.396;2023-09-30T15:46:32;7.97;;;3.50;;
14704;SDS011;7442;50.840;3.396;2023-09-30T15:49:19;10.38;;;3.20;;
14704;SDS011;7442;50.840;3.396;2023-09-30T15:52:05;6.58;;;3.08;;
14704;SDS011;7442;50.840;3.396;2023-09-30T15:54:52;11.45;;;3.27;;
14704;SDS011;7442;50.840;3.396;2023-09-30T15:57:39;9.53;;;3.37;;
14704;SDS011;7442;50.840;3.396;2023-09-30T16:00:27;9.85;;;3.67;;
14704;SDS011;7442;50.840;3.396;2023-09-30T16:03:13;10.28;;;3.30;;
14704;SDS011;7442;50.840;3.396;2023-09-30T16:06:00;8.53;;;2.85;;
14704;SDS011;7442;50.840;3.396;2023-09-30T16:08:49;8.70;;;2.83;;
14704;SDS011;7442;50.840;3.396;2023-09-30T16:11:35;11.73;;;3.30;;
14704;SDS011;7442;50.840;3.396;2023-09-30T16:14:22;9.98;;;3.25;;
14704;SDS011;7442;50.840;3.396;2023-09-30T16:17:08;10.82;;;3.72;;
14704;SDS011;7442;50.840;3.396;2023-09-30T16:19:55;9.93;;;3.50;;
14704;SDS011;7442;50.840;3.396;2023-09-30T16:22:45;9.43;;;3.35;;
14704;SDS011;7442;50.840;3.396;2023-09-30T16:25:29;7.37;;;3.52;;
14704;SDS011;7442;50.840;3.396;2023-09-30T16:28:16;11.95;;;3.42;;
14704;SDS011;7442;50.840;3.396;2023-09-30T16:31:02;8.80;;;3.70;;
14704;SDS011;7442;50.840;3.396;2023-09-30T16:33:49;9.95;;;3.40;;
14704;SDS011;7442;50.840;3.396;2023-09-30T16:36:36;8.28;;;2.98;;
14704;SDS011;7442;50.840;3.396;2023-09-30T16:39:22;9.73;;;3.50;;
14704;SDS011;7442;50.840;3.396;2023-09-30T16:42:09;8.83;;;3.52;;
14704;SDS011;7442;50.840;3.396;2023-09-30T16:44:55;7.78;;;3.45;;
14704;SDS011;7442;50.840;3.396;2023-09-30T16:47:43;8.95;;;3.00;;
14704;SDS011;7442;50.840;3.396;2023-09-30T16:50:29;7.97;;;3.22;;
14704;SDS011;7442;50.840;3.396;2023-09-30T16:53:15;7.83;;;2.77;;
14704;SDS011;7442;50.840;3.396;2023-09-30T16:56:02;11.55;;;3.60;;
14704;SDS011;7442;50.840;3.396;2023-09-30T16:58:48;7.87;;;3.08;;
14704;SDS011;7442;50.840;3.396;2023-09-30T17:01:35;11.45;;;3.85;;
14704;SDS011;7442;50.840;3.396;2023-09-30T17:04:25;11.68;;;3.67;;
14704;SDS011;7442;50.840;3.396;2023-09-30T17:07:11;11.28;;;3.50;;
14704;SDS011;7442;50.840;3.396;2023-09-30T17:09:58;8.03;;;3.40;;
14704;SDS011;7442;50.840;3.396;2023-09-30T17:12:44;11.45;;;3.92;;
14704;SDS011;7442;50.840;3.396;2023-09-30T17:15:30;10.48;;;3.62;;
14704;SDS011;7442;50.840;3.396;2023-09-30T17:18:17;10.30;;;3.60;;